Hovedside
METAR-TAF:

METAR-TAF

Lufthavner :

Västerås lufthavn

Västerås, Sverige

breddegrad: 59-35N, lengdegrad: 016-38E, høyde over havet: 6 m

Gjeldene værobservasjon

Denne rapporten ble laget for 15 minutter siden, klokken 01:20 UTC
Vind 11 kt fra Nord
Temperatur 2°C
Luftfuktighet 93%
Trykk 1008 hPa
Sikt 10 km eller mer
lett regn

METAR: ESOW 110120Z AUTO 36011KT 9999 -RA BKN008/// OVC010/// 02/01 Q1008

Tid: 02:35 (01:35 UTC)

Varsel

Denne rapporten ble laget for 11 timer og 42 minutter siden, klokken 13:53 UTC
Varsel gyldig fra 10. klokken 13 UTC til 10. klokken 15 UTC
Vind 2 kt fra skiftende retning
Sikt: 8000 m
Brutte skyer i en høyde av 700 ft
lett snø, regn
Sannsynlighet 40%
fra 10. klokken 13 UTC til 10. klokken 15 UTC
Sikt: 2500 m
i en høyde av 1500 ft
lett snø

TAF: ESOW 101353Z 1013/1015 VRB02KT 8000 -SNRA BKN007 PROB40 1013/1015 2500 -SN VV015

Værobservasjoner og værvarsel for over 4000 flyplasser (METAR- og TAF-rapporter).

Tilgjengelige stasjoner er representert av de røde og gule prikkene på kartet.

Hold musepekeren over prikken for å se navnet på stasjonen.

Klikk så for å se værobservasjoner og -varsler.

For å forandre kartet kan du klikke på den grønne knappen med svart kryss for å zoome inn, på den grønne knappen med strek for å zoome ut, eller på de grønne pilene for å se tilstøtende kart.


METAR-TAF: